createdAt,value
2022-07-28T00:00:31.222Z,9.13
2022-07-28T00:05:36.574Z,9.15
2022-07-28T00:10:39.959Z,9.13
2022-07-28T00:15:43.292Z,9.73
2022-07-28T00:20:48.120Z,9.57
2022-07-28T00:25:51.370Z,9.10
2022-07-28T00:30:56.376Z,10.53
2022-07-28T00:36:01.148Z,10.43
2022-07-28T00:41:14.160Z,9.52
2022-07-28T00:46:19.680Z,9.30
2022-07-28T00:51:27.864Z,9.75
2022-07-28T00:56:31.828Z,9.70
2022-07-28T01:01:36.022Z,9.98
2022-07-28T01:11:59.444Z,10.30
2022-07-28T01:17:09.132Z,9.57
2022-07-28T01:22:18.699Z,9.43
2022-07-28T01:27:37.102Z,9.05
2022-07-28T01:32:45.408Z,9.35
2022-07-28T01:37:53.433Z,9.63
2022-07-28T01:43:00.437Z,10.13
2022-07-28T01:48:06.912Z,11.30
2022-07-28T01:53:11.942Z,11.30
2022-07-28T01:58:18.249Z,12.68
2022-07-28T02:03:25.456Z,11.85
2022-07-28T02:08:29.773Z,11.70
2022-07-28T02:13:35.206Z,10.27
2022-07-28T02:18:41.368Z,9.95
2022-07-28T02:23:48.828Z,9.48
2022-07-28T02:28:55.497Z,9.18
2022-07-28T02:34:04.377Z,9.77
2022-07-28T02:39:17.097Z,8.30
2022-07-28T02:44:27.588Z,7.78
2022-07-28T02:49:34.930Z,8.73
2022-07-28T02:54:39.083Z,9.40
2022-07-28T02:59:44.091Z,9.45
2022-07-28T03:05:00.916Z,8.30
2022-07-28T03:10:05.366Z,8.85
2022-07-28T03:15:09.670Z,9.77
2022-07-28T03:20:16.020Z,9.85
2022-07-28T03:25:27.795Z,10.20
2022-07-28T03:30:43.549Z,10.50
2022-07-28T03:35:52.952Z,11.20
2022-07-28T03:40:58.855Z,10.10
2022-07-28T03:46:02.404Z,11.07
2022-07-28T03:51:07.162Z,11.35
2022-07-28T03:56:10.566Z,10.65
2022-07-28T04:01:14.122Z,12.32
2022-07-28T04:06:19.294Z,12.18
2022-07-28T04:11:23.354Z,14.02
2022-07-28T04:16:26.846Z,15.23
2022-07-28T04:21:31.682Z,14.00
2022-07-28T04:26:35.012Z,15.25
2022-07-28T04:31:38.566Z,16.38
2022-07-28T04:41:47.067Z,14.85
2022-07-28T04:46:50.426Z,15.85
2022-07-28T04:51:55.159Z,16.45
2022-07-28T04:57:00.808Z,15.82
2022-07-28T05:02:09.082Z,16.33
2022-07-28T05:07:14.073Z,15.43
2022-07-28T05:12:17.447Z,14.65
2022-07-28T05:17:20.768Z,16.17
2022-07-28T05:22:25.513Z,15.43
2022-07-28T05:27:28.785Z,15.23
2022-07-28T05:32:32.084Z,14.80
2022-07-28T05:37:37.770Z,14.70
2022-07-28T05:42:41.118Z,14.05
2022-07-28T05:47:46.421Z,14.25
2022-07-28T05:52:51.905Z,14.35
2022-07-28T05:57:55.347Z,13.43
2022-07-28T06:03:02.168Z,13.85
2022-07-28T06:08:10.621Z,13.40
2022-07-28T06:13:16.413Z,15.27
2022-07-28T06:18:19.974Z,13.15
2022-07-28T06:23:25.157Z,12.63
2022-07-28T06:28:28.465Z,12.13
2022-07-28T06:33:31.917Z,11.85
2022-07-28T06:38:36.774Z,11.80
2022-07-28T06:43:40.253Z,12.15
2022-07-28T06:48:46.073Z,12.70
2022-07-28T06:53:50.897Z,11.73
2022-07-28T06:58:54.215Z,11.77
2022-07-28T07:03:57.894Z,12.73
2022-07-28T07:09:03.001Z,11.50
2022-07-28T07:14:06.335Z,13.00
2022-07-28T07:19:15.452Z,12.57
2022-07-28T07:24:20.530Z,12.40
2022-07-28T07:29:25.823Z,12.00
2022-07-28T07:34:33.860Z,12.18
2022-07-28T07:39:38.629Z,11.70
2022-07-28T07:44:42.134Z,12.32
2022-07-28T07:49:53.801Z,12.85
2022-07-28T07:54:58.665Z,12.88
2022-07-28T08:00:02.122Z,12.13
2022-07-28T08:05:07.010Z,11.77
2022-07-28T08:10:13.120Z,12.82
2022-07-28T08:15:16.626Z,13.50
2022-07-28T08:20:20.126Z,13.25
2022-07-28T08:25:25.675Z,13.32
2022-07-28T08:30:32.736Z,13.43
2022-07-28T08:35:36.663Z,13.18
2022-07-28T08:40:43.580Z,14.00
2022-07-28T08:45:52.543Z,13.40
2022-07-28T08:51:01.803Z,13.18
2022-07-28T08:56:07.931Z,11.05
2022-07-28T09:01:11.664Z,11.02
2022-07-28T09:06:15.434Z,11.18
2022-07-28T09:11:20.214Z,10.20
2022-07-28T09:16:23.845Z,11.18
2022-07-28T09:21:27.308Z,10.13
2022-07-28T09:26:32.124Z,10.05
2022-07-28T09:31:35.531Z,9.20
2022-07-28T09:36:41.569Z,9.77
2022-07-28T09:41:50.695Z,8.82
2022-07-28T09:46:54.541Z,9.55
2022-07-28T09:52:03.204Z,9.13
2022-07-28T09:57:11.863Z,10.13
2022-07-28T10:02:25.490Z,8.73
2022-07-28T10:07:31.319Z,9.55
2022-07-28T10:12:38.340Z,9.02
2022-07-28T10:17:43.315Z,8.23
2022-07-28T10:22:47.297Z,7.65
2022-07-28T10:27:52.675Z,8.23
2022-07-28T10:32:58.387Z,7.40
2022-07-28T10:38:05.659Z,8.43
2022-07-28T10:43:10.563Z,7.60
2022-07-28T10:48:14.306Z,7.85
2022-07-28T10:53:29.203Z,8.13
2022-07-28T10:58:45.322Z,8.10
2022-07-28T11:03:49.604Z,7.85
2022-07-28T11:08:53.851Z,7.38
2022-07-28T11:14:38.993Z,7.93
2022-07-28T11:25:22.413Z,8.38
2022-07-28T11:30:53.719Z,7.80
2022-07-28T11:36:02.164Z,8.20
2022-07-28T11:41:30.119Z,8.63
2022-07-28T11:46:39.934Z,8.75
2022-07-28T11:52:03.497Z,8.40
2022-07-28T11:57:09.954Z,7.57
2022-07-28T12:02:19.029Z,8.65
2022-07-28T12:07:29.308Z,9.13
2022-07-28T12:12:34.667Z,8.65
2022-07-28T12:17:40.647Z,8.68
2022-07-28T12:22:56.664Z,7.90
2022-07-28T12:28:14.237Z,8.20
2022-07-28T12:33:26.182Z,7.65
2022-07-28T12:38:34.580Z,7.20
2022-07-28T12:43:38.232Z,7.43
2022-07-28T12:48:43.145Z,7.55
2022-07-28T12:53:52.476Z,8.15
2022-07-28T12:59:06.413Z,8.30
2022-07-28T13:04:11.404Z,6.95
2022-07-28T13:09:29.940Z,6.00
2022-07-28T13:14:43.929Z,6.53
2022-07-28T13:19:49.622Z,7.53
2022-07-28T13:24:53.254Z,7.10
2022-07-28T13:29:57.354Z,7.07
2022-07-28T13:35:03.554Z,6.72
2022-07-28T13:40:08.172Z,7.30
2022-07-28T13:45:12.292Z,8.55
2022-07-28T13:50:22.056Z,10.25
2022-07-28T13:55:27.577Z,8.32
2022-07-28T14:00:31.320Z,7.85
2022-07-28T14:05:36.788Z,10.07
2022-07-28T14:10:41.981Z,10.60
2022-07-28T14:15:51.945Z,9.10
2022-07-28T14:21:09.323Z,8.95
2022-07-28T14:26:34.870Z,9.18
2022-07-28T14:31:37.633Z,9.43
2022-07-28T14:36:42.489Z,11.63
2022-07-28T14:41:45.868Z,11.20
2022-07-28T14:46:52.501Z,10.73
2022-07-28T14:51:58.002Z,12.57
2022-07-28T14:57:01.520Z,10.55
2022-07-28T15:02:05.250Z,12.43
2022-07-28T15:07:10.288Z,13.93
2022-07-28T15:12:15.441Z,16.40
2022-07-28T15:17:19.759Z,13.00
2022-07-28T15:22:26.446Z,12.73
2022-07-28T15:27:33.648Z,14.40
2022-07-28T15:32:47.492Z,15.13
2022-07-28T15:38:01.183Z,14.60
2022-07-28T15:43:04.663Z,14.07
2022-07-28T15:48:09.040Z,13.05
2022-07-28T15:53:13.786Z,12.00
2022-07-28T15:58:17.174Z,12.45
2022-07-28T16:03:22.763Z,10.63
2022-07-28T16:08:28.363Z,10.52
2022-07-28T16:13:36.840Z,7.25
2022-07-28T16:18:44.054Z,5.72
2022-07-28T16:23:48.808Z,5.72
2022-07-28T16:28:52.182Z,5.35
2022-07-28T16:33:56.905Z,5.25
2022-07-28T16:39:04.246Z,4.22
2022-07-28T16:44:07.702Z,3.88
2022-07-28T16:49:11.129Z,4.30
2022-07-28T16:54:16.227Z,4.10
2022-07-28T16:59:20.826Z,3.53
2022-07-28T17:04:24.406Z,3.30
2022-07-28T17:09:29.142Z,3.20
2022-07-28T17:14:32.606Z,3.30
2022-07-28T17:19:39.827Z,2.97
2022-07-28T17:24:48.480Z,2.88
2022-07-28T17:29:52.866Z,3.03
2022-07-28T17:34:56.213Z,2.58
2022-07-28T17:40:01.198Z,2.60
2022-07-28T17:45:09.418Z,2.58
2022-07-28T17:50:13.639Z,2.42
2022-07-28T18:01:11.065Z,2.05
2022-07-28T18:06:15.118Z,2.08
2022-07-28T18:11:20.187Z,2.00
2022-07-28T18:16:23.631Z,2.13
2022-07-28T18:21:27.153Z,2.20
2022-07-28T18:26:32.234Z,2.10
2022-07-28T18:31:35.662Z,1.90
2022-07-28T18:36:39.112Z,2.30
2022-07-28T18:41:46.029Z,2.03
2022-07-28T18:46:52.573Z,2.63
2022-07-28T18:51:56.183Z,2.10
2022-07-28T18:57:00.971Z,1.88
2022-07-28T19:02:04.472Z,2.40
2022-07-28T19:07:07.875Z,2.00
2022-07-28T19:12:12.893Z,2.07
2022-07-28T19:17:16.227Z,1.70
2022-07-28T19:22:19.868Z,1.80
2022-07-28T19:27:24.654Z,2.25
2022-07-28T19:32:34.444Z,2.10
2022-07-28T19:37:39.057Z,1.90
2022-07-28T19:42:43.813Z,1.70
2022-07-28T19:47:47.216Z,1.80
2022-07-28T19:52:53.272Z,1.58
2022-07-28T19:57:59.385Z,1.90
2022-07-28T20:03:03.448Z,1.83
2022-07-28T20:08:06.897Z,3.10
2022-07-28T20:13:11.977Z,1.50
2022-07-28T20:18:17.242Z,1.50
2022-07-28T20:23:20.622Z,1.63
2022-07-28T20:28:25.424Z,7.73
2022-07-28T20:33:30.092Z,1.38
2022-07-28T20:38:33.408Z,1.30
2022-07-28T20:43:38.647Z,1.30
2022-07-28T20:48:42.087Z,1.60
2022-07-28T20:53:45.389Z,1.40
2022-07-28T20:58:50.178Z,1.55
2022-07-28T21:03:53.457Z,1.60
2022-07-28T21:08:59.974Z,1.40
2022-07-28T21:14:05.032Z,1.50
2022-07-28T21:19:08.805Z,1.42
2022-07-28T21:24:12.423Z,1.33
2022-07-28T21:34:20.303Z,1.20
2022-07-28T21:39:23.644Z,2.00
2022-07-28T21:44:28.505Z,1.70
2022-07-28T21:49:32.499Z,1.60
2022-07-28T21:54:36.711Z,2.45
2022-07-28T21:59:41.445Z,1.52
2022-07-28T22:04:44.779Z,1.80
2022-07-28T22:09:48.127Z,1.77
2022-07-28T22:14:52.972Z,1.60
2022-07-28T22:19:56.350Z,1.55
2022-07-28T22:24:59.816Z,1.60
2022-07-28T22:30:05.391Z,1.60
2022-07-28T22:35:10.803Z,1.50
2022-07-28T22:40:16.205Z,1.40
2022-07-28T22:45:50.619Z,1.50
2022-07-28T22:50:44.638Z,1.70
2022-07-28T22:55:49.412Z,1.70
2022-07-28T23:00:55.029Z,1.83
2022-07-28T23:06:00.193Z,1.73
2022-07-28T23:11:03.582Z,1.80
2022-07-28T23:16:10.493Z,1.90
2022-07-28T23:21:14.051Z,1.88
2022-07-28T23:26:17.492Z,1.80
2022-07-28T23:31:23.036Z,2.20
2022-07-28T23:36:27.884Z,1.92
2022-07-28T23:41:31.582Z,1.80
2022-07-28T23:46:37.117Z,1.85
2022-07-28T23:51:47.581Z,1.80
2022-07-28T23:56:55.255Z,2.10
